createdAt,value
2019-03-06T00:01:25.163Z,62.46
2019-03-06T00:06:26.732Z,62.47
2019-03-06T00:11:28.277Z,62.41
2019-03-06T00:16:29.830Z,62.53
2019-03-06T00:21:31.401Z,62.50
2019-03-06T00:26:33.060Z,62.51
2019-03-06T00:31:34.754Z,62.43
2019-03-06T00:36:36.453Z,62.39
2019-03-06T00:41:43.472Z,62.32
2019-03-06T00:46:45.151Z,62.33
2019-03-06T00:51:46.722Z,62.41
2019-03-06T00:56:48.285Z,62.51
2019-03-06T01:01:50.172Z,62.47
2019-03-06T01:06:52.216Z,62.49
2019-03-06T01:11:53.789Z,62.56
2019-03-06T01:16:55.360Z,62.59
2019-03-06T01:21:56.957Z,62.64
2019-03-06T01:26:58.531Z,62.66
2019-03-06T01:32:00.239Z,62.71
2019-03-06T01:37:21.594Z,62.80
2019-03-06T01:42:45.517Z,62.94
2019-03-06T01:47:47.136Z,63.08
2019-03-06T01:52:48.809Z,63.29
2019-03-06T01:57:50.361Z,63.32
2019-03-06T02:02:52.014Z,63.33
2019-03-06T02:07:53.664Z,63.29
2019-03-06T02:12:55.349Z,63.16
2019-03-06T02:17:56.914Z,63.08
2019-03-06T02:22:58.597Z,63.16
2019-03-06T02:28:00.560Z,63.45
2019-03-06T02:33:02.220Z,63.63
2019-03-06T02:38:03.903Z,63.55
2019-03-06T02:43:05.570Z,63.54
2019-03-06T02:48:07.241Z,63.63
2019-03-06T02:53:08.858Z,63.61
2019-03-06T02:58:20.706Z,63.78
2019-03-06T03:03:47.930Z,63.77
2019-03-06T03:08:49.687Z,63.81
2019-03-06T03:13:51.233Z,64.19
2019-03-06T03:18:52.910Z,64.15
2019-03-06T03:23:54.463Z,64.18
2019-03-06T03:28:56.088Z,64.11
2019-03-06T03:33:57.747Z,64.16
2019-03-06T03:38:59.304Z,64.15
2019-03-06T03:44:00.939Z,64.25
2019-03-06T03:49:02.498Z,64.25
2019-03-06T03:54:04.543Z,64.20
2019-03-06T03:59:06.211Z,64.03
2019-03-06T04:04:07.879Z,63.84
2019-03-06T04:09:09.608Z,63.81
2019-03-06T04:14:11.186Z,63.93
2019-03-06T04:19:12.750Z,64.15
2019-03-06T04:24:14.308Z,64.45
2019-03-06T04:29:16.090Z,64.55
2019-03-06T04:34:17.842Z,64.54
2019-03-06T04:39:19.463Z,64.63
2019-03-06T04:44:21.016Z,64.62
2019-03-06T04:49:22.571Z,64.39
2019-03-06T04:54:24.124Z,64.53
2019-03-06T04:59:25.675Z,64.76
2019-03-06T05:04:27.222Z,64.78
2019-03-06T05:09:28.759Z,64.86
2019-03-06T05:14:30.745Z,64.87
2019-03-06T05:19:32.284Z,64.92
2019-03-06T05:24:33.913Z,64.97
2019-03-06T05:29:35.465Z,65.18
2019-03-06T05:34:37.012Z,65.25
2019-03-06T05:39:38.688Z,65.25
2019-03-06T05:44:40.256Z,65.25
2019-03-06T05:49:41.841Z,65.26
2019-03-06T05:54:43.395Z,65.21
2019-03-06T05:59:44.951Z,65.05
2019-03-06T06:04:46.497Z,64.94
2019-03-06T06:09:48.043Z,65.00
2019-03-06T06:14:49.617Z,64.98
2019-03-06T06:19:51.414Z,64.99
2019-03-06T06:24:52.973Z,64.85
2019-03-06T06:29:54.523Z,64.83
2019-03-06T06:34:56.199Z,65.00
2019-03-06T06:39:57.735Z,64.94
2019-03-06T06:44:59.385Z,64.87
2019-03-06T06:50:00.951Z,64.94
2019-03-06T06:55:24.701Z,64.95
2019-03-06T07:01:00.607Z,65.02
2019-03-06T07:06:20.664Z,65.04
2019-03-06T07:11:30.267Z,65.03
2019-03-06T07:16:45.040Z,65.03
2019-03-06T07:21:55.774Z,64.93
2019-03-06T07:27:10.316Z,64.85
2019-03-06T07:32:30.100Z,64.73
2019-03-06T07:37:46.117Z,64.50
2019-03-06T07:43:12.992Z,64.36
2019-03-06T07:48:33.292Z,64.32
2019-03-06T07:53:59.027Z,64.28
2019-03-06T07:59:00.869Z,64.23
2019-03-06T08:04:10.874Z,64.11
2019-03-06T08:09:17.199Z,64.00
2019-03-06T08:14:56.606Z,63.90
2019-03-06T08:20:15.002Z,63.79
2019-03-06T08:25:23.048Z,63.64
2019-03-06T08:30:26.672Z,63.53
2019-03-06T08:35:28.421Z,63.49
2019-03-06T08:40:30.256Z,63.34
2019-03-06T08:45:43.208Z,63.20
2019-03-06T08:51:10.709Z,63.08
2019-03-06T08:56:18.841Z,63.03
2019-03-06T09:02:00.469Z,62.99
2019-03-06T09:07:09.721Z,62.73
2019-03-06T09:12:25.842Z,62.59
2019-03-06T09:17:42.160Z,62.62
2019-03-06T09:23:02.143Z,62.50
2019-03-06T09:28:23.534Z,62.33
2019-03-06T09:33:41.876Z,62.11
2019-03-06T09:39:06.208Z,61.92
2019-03-06T09:44:36.518Z,61.94
2019-03-06T09:50:00.894Z,62.06
2019-03-06T09:55:37.527Z,62.10
2019-03-06T10:00:53.458Z,61.75
2019-03-06T10:06:02.387Z,61.39
2019-03-06T10:11:19.407Z,61.13
2019-03-06T10:16:31.038Z,60.83
2019-03-06T10:21:32.642Z,60.63
2019-03-06T10:26:34.340Z,60.62
2019-03-06T10:31:36.090Z,60.72
2019-03-06T10:36:37.844Z,60.82
2019-03-06T10:41:39.488Z,60.46
2019-03-06T10:46:41.272Z,59.83
2019-03-06T10:51:43.220Z,59.29
2019-03-06T10:56:44.972Z,59.05
2019-03-06T11:01:46.673Z,58.64
2019-03-06T11:06:48.375Z,57.97
2019-03-06T11:11:50.143Z,57.71
2019-03-06T11:16:51.847Z,57.20
2019-03-06T11:21:53.965Z,56.67
2019-03-06T11:26:55.911Z,56.27
2019-03-06T11:31:57.636Z,56.18
2019-03-06T11:36:59.496Z,55.95
2019-03-06T11:42:01.198Z,55.06
2019-03-06T11:47:02.951Z,51.22
2019-03-06T11:52:06.576Z,48.75
2019-03-06T11:57:08.480Z,46.76
2019-03-06T12:02:10.655Z,44.35
2019-03-06T12:07:12.621Z,44.21
2019-03-06T12:12:14.237Z,38.72
2019-03-06T12:17:15.944Z,38.72
2019-03-06T12:22:17.576Z,39.05
2019-03-06T12:27:19.242Z,40.15
2019-03-06T12:32:20.901Z,44.16
2019-03-06T12:37:22.480Z,49.65
2019-03-06T12:42:24.073Z,51.06
2019-03-06T12:47:25.942Z,48.23
2019-03-06T12:52:27.723Z,41.85
2019-03-06T12:57:29.500Z,38.41
2019-03-06T13:02:31.210Z,37.65
2019-03-06T13:07:32.965Z,37.79
2019-03-06T13:12:38.236Z,37.86
2019-03-06T13:17:39.934Z,37.85
2019-03-06T13:22:42.164Z,38.09
2019-03-06T13:27:43.873Z,37.84
2019-03-06T13:32:59.701Z,37.06
2019-03-06T13:38:01.374Z,37.00
2019-03-06T13:43:03.133Z,39.11
2019-03-06T13:48:04.887Z,40.89
2019-03-06T13:53:06.537Z,40.94
2019-03-06T13:58:08.437Z,41.54
2019-03-06T14:03:10.283Z,42.44
2019-03-06T14:08:12.009Z,42.58
2019-03-06T14:13:13.696Z,42.55
2019-03-06T14:18:15.536Z,45.30
2019-03-06T14:23:17.221Z,46.17
2019-03-06T14:28:18.894Z,47.46
2019-03-06T14:33:21.116Z,47.93
2019-03-06T14:38:22.903Z,48.49
2019-03-06T14:43:24.660Z,49.31
2019-03-06T14:48:26.644Z,49.68
2019-03-06T14:53:28.370Z,49.97
2019-03-06T14:58:30.198Z,49.94
2019-03-06T15:03:32.228Z,49.73
2019-03-06T15:08:33.826Z,49.66
2019-03-06T15:13:35.528Z,49.53
2019-03-06T15:18:37.094Z,49.53
2019-03-06T15:23:38.884Z,49.39
2019-03-06T15:28:40.740Z,49.15
2019-03-06T15:33:46.425Z,48.74
2019-03-06T15:38:48.149Z,48.39
2019-03-06T15:43:49.861Z,48.33
2019-03-06T15:48:51.602Z,48.13
2019-03-06T15:53:54.769Z,48.11
2019-03-06T15:58:56.433Z,48.42
2019-03-06T16:03:58.022Z,48.63
2019-03-06T16:08:59.719Z,48.61
2019-03-06T16:14:01.432Z,48.71
2019-03-06T16:19:03.933Z,48.87
2019-03-06T16:24:05.484Z,48.90
2019-03-06T16:29:07.149Z,49.02
2019-03-06T16:34:08.829Z,49.20
2019-03-06T16:39:10.495Z,49.35
2019-03-06T16:44:12.561Z,49.48
2019-03-06T16:49:14.233Z,49.64
2019-03-06T16:54:16.164Z,49.83
2019-03-06T16:59:17.843Z,50.02
2019-03-06T17:04:19.517Z,50.07
2019-03-06T17:09:21.594Z,50.08
2019-03-06T17:14:23.682Z,50.04
2019-03-06T17:19:25.353Z,50.02
2019-03-06T17:24:27.026Z,50.00
2019-03-06T17:29:28.725Z,49.93
2019-03-06T17:34:30.702Z,49.87
2019-03-06T17:39:32.505Z,49.84
2019-03-06T17:44:34.212Z,49.83
2019-03-06T17:49:35.855Z,49.79
2019-03-06T17:54:37.546Z,49.73
2019-03-06T17:59:39.144Z,49.77
2019-03-06T18:04:40.741Z,49.79
2019-03-06T18:09:42.355Z,49.83
2019-03-06T18:14:44.191Z,49.81
2019-03-06T18:19:45.878Z,49.90
2019-03-06T18:24:47.438Z,49.92
2019-03-06T18:29:49.017Z,49.79
2019-03-06T18:34:50.635Z,49.68
2019-03-06T18:39:52.521Z,49.69
2019-03-06T18:44:54.180Z,49.74
2019-03-06T18:49:55.745Z,49.71
2019-03-06T18:54:57.357Z,49.73
2019-03-06T18:59:58.938Z,49.82
2019-03-06T19:05:00.537Z,49.80
2019-03-06T19:10:02.491Z,49.90
2019-03-06T19:15:04.508Z,49.97
2019-03-06T19:20:06.553Z,49.99
2019-03-06T19:25:08.914Z,50.07
2019-03-06T19:30:15.145Z,50.12
2019-03-06T19:35:17.398Z,50.11
2019-03-06T19:40:19.050Z,50.09
2019-03-06T19:45:20.855Z,50.15
2019-03-06T19:50:22.520Z,50.21
2019-03-06T19:55:24.484Z,50.22
2019-03-06T20:00:26.582Z,50.27
2019-03-06T20:05:30.442Z,50.30
2019-03-06T20:10:32.425Z,50.23
2019-03-06T20:15:34.135Z,50.12
2019-03-06T20:20:35.834Z,50.28
2019-03-06T20:25:37.537Z,50.40
2019-03-06T20:30:39.088Z,50.44
2019-03-06T20:35:40.745Z,50.52
2019-03-06T20:40:42.414Z,50.61
2019-03-06T20:45:44.244Z,50.66
2019-03-06T20:50:45.780Z,50.66
2019-03-06T20:55:47.351Z,50.76
2019-03-06T21:00:49.005Z,50.76
2019-03-06T21:05:50.690Z,50.70
2019-03-06T21:10:52.515Z,50.74
2019-03-06T21:15:54.211Z,50.75
2019-03-06T21:20:55.767Z,50.75
2019-03-06T21:25:57.360Z,50.70
2019-03-06T21:30:58.905Z,50.66
2019-03-06T21:36:00.453Z,50.64
2019-03-06T21:41:02.129Z,50.73
2019-03-06T21:46:03.802Z,50.83
2019-03-06T21:51:05.660Z,50.92
2019-03-06T21:56:07.327Z,51.01
2019-03-06T22:01:08.892Z,51.12
2019-03-06T22:06:10.451Z,51.14
2019-03-06T22:11:12.035Z,51.25
2019-03-06T22:16:13.577Z,51.27
2019-03-06T22:21:15.129Z,51.34
2019-03-06T22:26:16.693Z,51.39
2019-03-06T22:31:18.475Z,51.40
2019-03-06T22:36:20.115Z,51.46
2019-03-06T22:41:21.658Z,51.56
2019-03-06T22:46:23.234Z,51.62
2019-03-06T22:51:25.523Z,51.64
2019-03-06T22:56:27.205Z,51.60
2019-03-06T23:01:34.505Z,51.54
2019-03-06T23:06:36.184Z,51.51
2019-03-06T23:11:38.147Z,51.52
2019-03-06T23:16:39.814Z,51.52
2019-03-06T23:21:41.481Z,51.48
2019-03-06T23:26:43.388Z,51.48
2019-03-06T23:31:45.186Z,51.41
2019-03-06T23:36:46.857Z,51.39
2019-03-06T23:41:48.470Z,51.36
2019-03-06T23:46:50.382Z,51.33
2019-03-06T23:51:59.242Z,51.34
2019-03-06T23:57:00.888Z,51.26
